Kingsport, TN

2:42 PM EDT on July 29, 2015 (GMT -0400)
Tri-Cities Regional Tennessee / Virginia | | Change Station
CLOSE
Current Station
Airport
Location: Tri-Cities,
Elevation: 1519 ft
Nearby Weather Stations

Elev 1519 ft 36.48 °N, 82.40 °W | Updated 49 minutes ago

Partly Cloudy
Partly Cloudy
87 °F
Feels Like 92 °F
N
5
Wind Variable Wind from Variable

Today
High -- | Low -- °F
--% Chance of Precip.
Yesterday
High -- | Low -- °F
Precip. -- in
6:33 AM 8:38 PM
Waxing Gibbous, 96% visible
Pressure 29.97 in
Visibility 8.0 miles
Clouds Scattered Clouds 3400 ft
Scattered Clouds 11000 ft
Heat Index 92 °F
Dew Point 70 °F
Humidity 57%
Rainfall 0.00 in
Snow Depth Not available.
UV 9 out of 12
Pollen 3.90 out of 12
Air Quality Not available.
Flu Activity Not available.
METAR KTRI 291753Z VRB04KT 8SM SCT034 SCT110 31/21 A3006 RMK AO2 SLP149 T03060211 10306 20217 58008

More Conditions Fewer Conditions

Pressure 29.97 in
Visibility 8.0 miles
Clouds Scattered Clouds 3400 ft
Scattered Clouds 11000 ft
Heat Index 92 °F
Dew Point 70 °F
Humidity 57%
Rainfall 0.00 in
Snow Depth Not available.
UV 9 out of 12
Pollen 3.90 out of 12
Air Quality Not available.
Flu Activity Not available.
METAR KTRI 291753Z VRB04KT 8SM SCT034 SCT110 31/21 A3006 RMK AO2 SLP149 T03060211 10306 20217 58008

More Conditions Fewer Conditions

10-Day Weather Forecast

×

Almanac

Astronomy

Jul. 29, 2015 Rise Set
Actual Time
Civil Twilight
Nautical Twilight
Astronomical Twilight
Moon
Length of Visible Light
Length of Day
Tomorrow will be .
, % of the Moon is Illuminated

Today's Extremes

State Highs State Lows

Community

WunderPhotos

Upload Photos

1,842,149 photos uploaded!

WunderBlogs® & News

Nearby

Air Quality

  Air Quality AQ Index Pollutant
Not available.

Snow Depth

Station Depth Elevation

Earthquake Activity

City Distance Mag. Time & Date
Minimum magnitude displayed is 2.5.

Coastal Water Temperatures

Place Temperature

Stations

Nearby Weather Stations

Station Location Temp. Windchill Dew Point Humidity Wind Precip. Elev Updated Type